createdAt,value
2019-04-26T00:02:00.848Z,20.53
2019-04-26T00:04:30.091Z,20.53
2019-04-26T00:06:59.384Z,22.17
2019-04-26T00:09:36.298Z,22.60
2019-04-26T00:12:23.764Z,21.33
2019-04-26T00:15:12.157Z,24.30
2019-04-26T00:17:47.832Z,22.03
2019-04-26T00:20:17.160Z,22.43
2019-04-26T00:22:46.451Z,23.70
2019-04-26T00:25:16.538Z,25.00
2019-04-26T00:27:45.986Z,23.30
2019-04-26T00:30:15.665Z,22.50
2019-04-26T00:32:45.129Z,24.15
2019-04-26T00:35:15.675Z,23.45
2019-04-26T00:37:45.132Z,23.38
2019-04-26T00:40:16.144Z,20.97
2019-04-26T00:42:46.760Z,23.23
2019-04-26T00:45:16.699Z,22.50
2019-04-26T00:47:45.997Z,22.73
2019-04-26T00:50:15.382Z,23.40
2019-04-26T00:52:46.497Z,21.70
2019-04-26T00:55:17.648Z,22.20
2019-04-26T00:57:47.310Z,22.17
2019-04-26T01:00:18.252Z,23.20
2019-04-26T01:02:51.895Z,21.20
2019-04-26T01:05:21.013Z,22.00
2019-04-26T01:07:52.236Z,19.67
2019-04-26T01:10:21.628Z,18.57
2019-04-26T01:12:50.752Z,20.40
2019-04-26T01:15:21.618Z,20.67
2019-04-26T01:17:50.545Z,20.73
2019-04-26T01:20:22.537Z,18.32
2019-04-26T01:22:53.510Z,16.87
2019-04-26T01:25:38.915Z,16.23
2019-04-26T01:28:11.237Z,17.20
2019-04-26T01:30:40.454Z,17.80
2019-04-26T01:33:10.543Z,17.85
2019-04-26T01:35:40.508Z,17.00
2019-04-26T01:38:13.856Z,17.93
2019-04-26T01:40:44.851Z,17.47
2019-04-26T01:43:21.678Z,17.00
2019-04-26T01:45:58.153Z,17.13
2019-04-26T01:48:44.128Z,16.67
2019-04-26T01:51:18.861Z,18.07
2019-04-26T01:53:50.396Z,16.53
2019-04-26T01:56:23.477Z,16.53
2019-04-26T01:58:52.665Z,15.33
2019-04-26T02:01:32.539Z,16.87
2019-04-26T02:04:01.569Z,16.53
2019-04-26T02:06:33.914Z,17.17
2019-04-26T02:09:01.596Z,17.37
2019-04-26T02:11:30.853Z,17.23
2019-04-26T02:13:59.899Z,17.43
2019-04-26T02:16:29.190Z,16.43
2019-04-26T02:18:58.562Z,17.73
2019-04-26T02:21:32.429Z,17.83
2019-04-26T02:24:30.143Z,19.90
2019-04-26T02:27:00.476Z,18.03
2019-04-26T02:29:30.404Z,20.20
2019-04-26T02:32:04.749Z,18.20
2019-04-26T02:34:37.685Z,20.80
2019-04-26T02:37:08.799Z,17.20
2019-04-26T02:39:40.821Z,19.57
2019-04-26T02:42:40.769Z,17.60
2019-04-26T02:46:00.825Z,21.07
2019-04-26T02:48:49.464Z,20.67
2019-04-26T02:51:22.512Z,20.50
2019-04-26T02:54:46.973Z,20.23
2019-04-26T02:57:25.308Z,19.75
2019-04-26T03:00:01.028Z,22.70
2019-04-26T03:02:31.137Z,25.03
2019-04-26T03:05:04.771Z,23.37
2019-04-26T03:08:05.835Z,24.03
2019-04-26T03:10:44.404Z,24.10
2019-04-26T03:13:38.066Z,24.63
2019-04-26T03:16:20.319Z,24.33
2019-04-26T03:18:59.665Z,23.47
2019-04-26T03:21:37.817Z,24.30
2019-04-26T03:24:22.443Z,26.20
2019-04-26T03:27:14.516Z,24.83
2019-04-26T03:30:18.303Z,25.63
2019-04-26T03:32:57.255Z,26.43
2019-04-26T03:35:57.092Z,25.83
2019-04-26T03:38:43.448Z,26.77
2019-04-26T03:41:23.779Z,25.67
2019-04-26T03:44:06.165Z,26.50
2019-04-26T03:47:09.076Z,24.70
2019-04-26T03:50:06.422Z,25.47
2019-04-26T03:53:15.300Z,24.53
2019-04-26T03:56:26.301Z,25.50
2019-04-26T03:59:23.943Z,25.20
2019-04-26T04:02:19.792Z,25.53
2019-04-26T04:05:04.726Z,25.10
2019-04-26T04:07:45.166Z,25.30
2019-04-26T04:10:15.267Z,27.50
2019-04-26T04:13:42.991Z,25.23
2019-04-26T04:16:25.373Z,25.80
2019-04-26T04:19:00.388Z,25.60
2019-04-26T04:21:46.932Z,24.40
2019-04-26T04:24:52.885Z,23.47
2019-04-26T04:27:39.327Z,24.77
2019-04-26T04:30:40.010Z,23.70
2019-04-26T04:33:33.138Z,24.93
2019-04-26T04:36:07.836Z,24.70
2019-04-26T04:39:18.887Z,23.77
2019-04-26T04:42:04.897Z,22.67
2019-04-26T04:45:02.911Z,23.87
2019-04-26T04:47:46.037Z,22.73
2019-04-26T04:50:24.567Z,23.90
2019-04-26T04:53:31.685Z,26.13
2019-04-26T04:56:27.220Z,24.10
2019-04-26T04:58:59.881Z,23.50
2019-04-26T05:02:21.157Z,25.03
2019-04-26T05:05:27.693Z,24.03
2019-04-26T05:08:23.478Z,24.17
2019-04-26T05:11:24.921Z,24.30
2019-04-26T05:14:01.576Z,23.73
2019-04-26T05:17:02.005Z,23.50
2019-04-26T05:20:02.597Z,25.10
2019-04-26T05:23:14.398Z,24.10
2019-04-26T05:26:30.341Z,23.70
2019-04-26T05:29:19.439Z,24.10
2019-04-26T05:32:01.178Z,24.60
2019-04-26T05:34:44.196Z,25.93
2019-04-26T05:37:55.221Z,25.77
2019-04-26T05:40:55.631Z,24.97
2019-04-26T05:43:59.537Z,24.47
2019-04-26T05:47:06.762Z,26.07
2019-04-26T05:50:28.965Z,25.10
2019-04-26T05:53:52.824Z,25.60
2019-04-26T05:56:40.143Z,25.77
2019-04-26T05:59:52.209Z,26.07
2019-04-26T06:02:51.359Z,22.97
2019-04-26T06:05:56.433Z,23.13
2019-04-26T06:09:13.938Z,24.40
2019-04-26T06:11:54.626Z,23.23
2019-04-26T06:14:54.735Z,24.77
2019-04-26T06:18:01.977Z,22.33
2019-04-26T06:20:59.729Z,23.40
2019-04-26T06:24:22.112Z,23.73
2019-04-26T06:27:33.684Z,22.70
2019-04-26T06:30:12.619Z,23.00
2019-04-26T06:33:06.246Z,19.30
2019-04-26T06:35:39.696Z,21.27
2019-04-26T06:38:56.492Z,20.80
2019-04-26T06:42:06.523Z,24.03
2019-04-26T06:45:37.188Z,21.15
2019-04-26T06:48:18.837Z,22.83
2019-04-26T06:50:55.993Z,21.83
2019-04-26T06:54:12.773Z,22.47
2019-04-26T06:57:15.278Z,22.23
2019-04-26T06:59:54.198Z,21.20
2019-04-26T07:02:42.105Z,23.90
2019-04-26T07:05:16.749Z,23.70
2019-04-26T07:08:17.085Z,22.53
2019-04-26T07:11:52.933Z,24.53
2019-04-26T07:14:51.055Z,22.50
2019-04-26T07:17:27.880Z,23.87
2019-04-26T07:20:28.947Z,26.80
2019-04-26T07:23:57.803Z,24.53
2019-04-26T07:27:05.039Z,25.10
2019-04-26T07:30:08.280Z,27.53
2019-04-26T07:33:08.979Z,26.27
2019-04-26T07:35:50.543Z,25.70
2019-04-26T07:39:10.500Z,25.00
2019-04-26T07:42:14.121Z,26.90
2019-04-26T07:45:38.033Z,26.00
2019-04-26T07:48:34.595Z,25.60
2019-04-26T07:51:49.954Z,31.37
2019-04-26T07:54:44.685Z,31.80
2019-04-26T07:57:50.620Z,36.73
2019-04-26T08:00:25.107Z,37.40
2019-04-26T08:03:16.567Z,35.37
2019-04-26T08:06:13.721Z,38.17
2019-04-26T08:08:52.037Z,36.23
2019-04-26T08:11:26.904Z,35.63
2019-04-26T08:14:10.699Z,35.97
2019-04-26T08:17:10.878Z,37.97
2019-04-26T08:19:44.991Z,36.90
2019-04-26T08:22:21.846Z,37.93
2019-04-26T08:24:50.135Z,34.60
2019-04-26T08:27:24.864Z,35.67
2019-04-26T08:30:03.474Z,35.00
2019-04-26T08:32:37.819Z,32.33
2019-04-26T08:35:23.749Z,30.30
2019-04-26T08:37:56.489Z,35.10
2019-04-26T08:40:31.125Z,35.60
2019-04-26T08:43:18.283Z,35.70
2019-04-26T08:46:21.602Z,35.13
2019-04-26T08:49:19.467Z,32.73
2019-04-26T08:51:52.162Z,34.10
2019-04-26T08:54:25.293Z,36.67
2019-04-26T08:57:08.234Z,35.63
2019-04-26T08:59:47.600Z,36.57
2019-04-26T09:02:38.527Z,34.20
2019-04-26T09:05:31.582Z,31.43
2019-04-26T09:08:04.005Z,33.90
2019-04-26T09:10:39.227Z,32.67
2019-04-26T09:13:09.778Z,33.77
2019-04-26T09:16:15.195Z,34.33
2019-04-26T09:18:52.325Z,32.43
2019-04-26T09:21:19.250Z,32.77
2019-04-26T09:24:21.039Z,30.97
2019-04-26T09:27:11.967Z,34.53
2019-04-26T09:29:52.707Z,30.77
2019-04-26T09:32:29.422Z,31.27
2019-04-26T09:34:58.481Z,31.80
2019-04-26T09:37:27.463Z,31.90
2019-04-26T09:39:56.508Z,31.87
2019-04-26T09:42:39.409Z,30.40
2019-04-26T09:45:17.020Z,32.17
2019-04-26T09:48:01.785Z,27.80
2019-04-26T09:50:41.172Z,26.00
2019-04-26T09:53:10.236Z,26.90
2019-04-26T09:55:39.269Z,25.10
2019-04-26T09:58:08.702Z,23.40
2019-04-26T10:00:38.276Z,22.10
2019-04-26T10:03:09.370Z,21.77
2019-04-26T10:05:38.028Z,23.20
2019-04-26T10:08:08.263Z,23.00
2019-04-26T10:10:37.868Z,23.80
2019-04-26T10:13:15.175Z,23.80
2019-04-26T10:16:04.311Z,25.47
2019-04-26T10:18:33.871Z,25.17
2019-04-26T10:21:02.878Z,24.77
2019-04-26T10:23:31.893Z,27.60
2019-04-26T10:26:01.530Z,24.25
2019-04-26T10:28:31.505Z,25.60
2019-04-26T10:31:01.536Z,25.15
2019-04-26T10:33:32.693Z,23.20
2019-04-26T10:36:02.432Z,24.13
2019-04-26T10:38:31.625Z,23.67
2019-04-26T10:41:01.628Z,22.93
2019-04-26T10:43:31.651Z,21.65
2019-04-26T10:46:01.676Z,24.23
2019-04-26T10:48:31.683Z,21.10
2019-04-26T10:51:03.395Z,19.13
2019-04-26T10:54:01.781Z,18.50
2019-04-26T10:57:08.625Z,17.60
2019-04-26T10:59:44.123Z,15.90
2019-04-26T11:02:17.292Z,18.00
2019-04-26T11:04:46.402Z,16.90
2019-04-26T11:07:15.421Z,15.40
2019-04-26T11:09:44.943Z,13.58
2019-04-26T11:12:15.869Z,12.00
2019-04-26T11:14:45.036Z,12.47
2019-04-26T11:17:16.047Z,12.93
2019-04-26T11:19:45.377Z,9.93
2019-04-26T11:22:14.534Z,10.60
2019-04-26T11:24:43.576Z,10.80
2019-04-26T11:27:12.662Z,12.87
2019-04-26T11:29:53.111Z,11.33
2019-04-26T11:32:12.623Z,12.93
2019-04-26T11:34:42.959Z,11.40
2019-04-26T11:37:13.378Z,10.83
2019-04-26T11:39:42.871Z,11.80
2019-04-26T11:42:13.280Z,12.43
2019-04-26T11:44:44.540Z,10.13
2019-04-26T11:47:13.078Z,9.27
2019-04-26T11:49:42.992Z,10.43
2019-04-26T11:52:12.181Z,10.67
2019-04-26T11:54:41.237Z,10.80
2019-04-26T11:57:12.187Z,10.27
2019-04-26T11:59:41.502Z,11.20
2019-04-26T12:02:12.230Z,10.27
2019-04-26T12:05:06.674Z,10.10
2019-04-26T12:07:43.497Z,11.03
2019-04-26T12:10:12.710Z,11.83
2019-04-26T12:12:43.122Z,12.17
2019-04-26T12:15:12.510Z,11.43
2019-04-26T12:17:41.564Z,12.17
2019-04-26T12:20:10.591Z,11.80
2019-04-26T12:22:43.272Z,9.97
2019-04-26T12:25:10.542Z,11.37
2019-04-26T12:27:39.647Z,11.23
2019-04-26T12:30:08.943Z,11.80
2019-04-26T12:32:38.003Z,12.47
2019-04-26T12:35:07.219Z,11.73
2019-04-26T12:37:36.271Z,11.13
2019-04-26T12:40:11.241Z,11.77
2019-04-26T12:42:38.462Z,11.30
2019-04-26T12:45:29.592Z,11.53
2019-04-26T12:47:59.540Z,11.07
2019-04-26T12:50:29.540Z,11.20
2019-04-26T12:52:59.439Z,11.10
2019-04-26T12:55:28.998Z,11.27
2019-04-26T12:57:58.354Z,11.70
2019-04-26T13:00:33.036Z,11.10
2019-04-26T13:03:02.587Z,11.00
2019-04-26T13:05:31.635Z,9.50
2019-04-26T13:08:00.642Z,10.63
2019-04-26T13:10:48.674Z,10.10
2019-04-26T13:13:40.246Z,9.70
2019-04-26T13:16:34.144Z,9.05
2019-04-26T13:19:03.172Z,9.37
2019-04-26T13:21:33.219Z,9.27
2019-04-26T13:24:04.542Z,8.47
2019-04-26T13:26:34.829Z,8.33
2019-04-26T13:29:05.098Z,9.00
2019-04-26T13:31:34.153Z,8.10
2019-04-26T13:34:04.603Z,8.53
2019-04-26T13:36:33.814Z,9.23
2019-04-26T13:39:03.653Z,9.53
2019-04-26T13:41:35.011Z,9.50
2019-04-26T13:44:05.725Z,9.20
2019-04-26T13:46:58.727Z,10.50
2019-04-26T13:49:33.492Z,9.20
2019-04-26T13:52:02.539Z,10.50
2019-04-26T13:54:31.604Z,10.13
2019-04-26T13:57:00.606Z,8.97
2019-04-26T13:59:31.678Z,8.90
2019-04-26T14:02:10.973Z,9.50
2019-04-26T14:04:31.218Z,8.93
2019-04-26T14:07:00.572Z,9.30
2019-04-26T14:09:29.663Z,9.47
2019-04-26T14:12:03.336Z,9.23
2019-04-26T14:14:30.257Z,9.80
2019-04-26T14:17:00.383Z,11.03
2019-04-26T14:19:29.761Z,9.30
2019-04-26T14:21:58.820Z,11.40
2019-04-26T14:24:48.798Z,10.83
2019-04-26T14:27:21.316Z,10.20
2019-04-26T14:29:50.341Z,10.63
2019-04-26T14:32:23.025Z,11.10
2019-04-26T14:34:50.162Z,10.83
2019-04-26T14:37:19.220Z,12.90
2019-04-26T14:39:50.802Z,10.07
2019-04-26T14:42:32.970Z,11.40
2019-04-26T14:44:50.196Z,11.30
2019-04-26T14:47:19.611Z,11.60
2019-04-26T14:49:48.603Z,11.27
2019-04-26T14:52:17.661Z,11.27
2019-04-26T14:54:47.595Z,10.83
2019-04-26T14:57:22.531Z,11.90
2019-04-26T14:59:56.829Z,10.13
2019-04-26T15:02:36.811Z,10.50
2019-04-26T15:05:25.374Z,11.37
2019-04-26T15:07:54.438Z,11.90
2019-04-26T15:10:43.817Z,11.60
2019-04-26T15:13:15.041Z,13.50
2019-04-26T15:15:37.608Z,14.63
2019-04-26T15:18:07.342Z,14.03
2019-04-26T15:20:37.854Z,15.20
2019-04-26T15:23:07.633Z,15.35
2019-04-26T15:25:37.392Z,13.70
2019-04-26T15:28:12.062Z,16.20
2019-04-26T15:30:43.350Z,19.43
2019-04-26T15:33:12.587Z,15.73
2019-04-26T15:35:39.850Z,16.23
2019-04-26T15:38:08.876Z,17.12
2019-04-26T15:41:11.690Z,16.90
2019-04-26T15:43:59.818Z,17.50
2019-04-26T15:46:57.228Z,17.27
2019-04-26T15:49:48.333Z,19.53
2019-04-26T15:52:17.510Z,18.70
2019-04-26T15:54:47.625Z,18.55
2019-04-26T15:57:16.691Z,17.10
2019-04-26T15:59:45.711Z,17.13
2019-04-26T16:02:18.383Z,16.30
2019-04-26T16:04:47.466Z,15.53
2019-04-26T16:07:27.392Z,15.67
2019-04-26T16:09:49.370Z,16.30
2019-04-26T16:12:20.309Z,15.17
2019-04-26T16:14:49.228Z,15.23
2019-04-26T16:17:18.246Z,16.57
2019-04-26T16:19:47.283Z,15.10
2019-04-26T16:22:16.342Z,16.53
2019-04-26T16:24:45.406Z,17.37
2019-04-26T16:27:14.766Z,19.70
2019-04-26T16:30:12.938Z,20.37
2019-04-26T16:33:07.070Z,20.50
2019-04-26T16:35:36.446Z,20.43
2019-04-26T16:38:23.382Z,19.50
2019-04-26T16:40:55.013Z,18.17
2019-04-26T16:43:36.445Z,20.30
2019-04-26T16:45:54.268Z,18.50
2019-04-26T16:48:25.679Z,21.17
2019-04-26T16:50:54.171Z,19.67
2019-04-26T16:53:43.537Z,18.97
2019-04-26T16:55:54.051Z,20.03
2019-04-26T16:58:24.672Z,19.70
2019-04-26T17:00:57.270Z,18.20
2019-04-26T17:03:26.216Z,18.73
2019-04-26T17:06:04.646Z,17.82
2019-04-26T17:08:26.977Z,16.20
2019-04-26T17:11:00.409Z,17.57
2019-04-26T17:13:30.220Z,18.30
2019-04-26T17:15:59.814Z,17.87
2019-04-26T17:18:29.017Z,17.10
2019-04-26T17:20:58.078Z,16.33
2019-04-26T17:23:44.726Z,16.70
2019-04-26T17:26:29.302Z,17.53
2019-04-26T17:28:57.848Z,19.73
2019-04-26T17:31:27.235Z,19.57
2019-04-26T17:33:56.697Z,18.98
2019-04-26T17:36:26.697Z,17.45
2019-04-26T17:38:56.746Z,18.35
2019-04-26T17:41:26.735Z,18.10
2019-04-26T17:44:08.491Z,19.25
2019-04-26T17:46:27.634Z,19.03
2019-04-26T17:48:56.649Z,20.20
2019-04-26T17:51:25.687Z,18.80
2019-04-26T17:54:20.325Z,18.60
2019-04-26T17:56:26.203Z,17.67
2019-04-26T17:58:56.311Z,18.83
2019-04-26T18:01:41.835Z,18.83
2019-04-26T18:03:56.322Z,18.83
2019-04-26T18:06:29.944Z,21.60
2019-04-26T18:08:56.368Z,21.40
2019-04-26T18:11:25.400Z,20.77
2019-04-26T18:13:54.440Z,21.10
2019-04-26T18:16:28.997Z,23.37
2019-04-26T18:19:19.358Z,24.93
2019-04-26T18:22:01.223Z,25.63
2019-04-26T18:24:32.174Z,26.40
2019-04-26T18:27:01.049Z,25.33
2019-04-26T18:29:30.454Z,27.07
2019-04-26T18:32:03.775Z,26.87
2019-04-26T18:34:36.652Z,25.93
2019-04-26T18:37:06.792Z,28.47
2019-04-26T18:39:33.224Z,27.23
2019-04-26T18:42:05.707Z,26.00
2019-04-26T18:44:36.974Z,30.03
2019-04-26T18:47:14.712Z,28.17
2019-04-26T18:49:43.562Z,30.03
2019-04-26T18:52:13.607Z,30.00
2019-04-26T18:54:51.336Z,29.02
2019-04-26T18:57:20.137Z,29.98
2019-04-26T18:59:51.438Z,30.70
2019-04-26T19:02:23.381Z,29.95
2019-04-26T19:04:52.999Z,29.37
2019-04-26T19:07:31.794Z,27.82
2019-04-26T19:09:59.547Z,30.00
2019-04-26T19:12:26.976Z,31.63
2019-04-26T19:15:21.843Z,29.90
2019-04-26T19:18:04.280Z,31.20
2019-04-26T19:20:45.375Z,30.35
2019-04-26T19:23:14.434Z,31.37
2019-04-26T19:25:43.697Z,31.20
2019-04-26T19:28:12.774Z,29.67
2019-04-26T19:30:48.827Z,31.97
2019-04-26T19:33:17.039Z,30.80
2019-04-26T19:35:47.213Z,30.20
2019-04-26T19:38:14.981Z,32.10
2019-04-26T19:40:47.745Z,33.43
2019-04-26T19:43:27.720Z,32.30
2019-04-26T19:46:07.471Z,34.10
2019-04-26T19:48:44.750Z,34.33
2019-04-26T19:51:31.776Z,33.85
2019-04-26T19:54:07.663Z,35.60
2019-04-26T19:56:48.253Z,34.30
2019-04-26T19:59:17.392Z,35.77
2019-04-26T20:01:56.326Z,33.33
2019-04-26T20:04:24.635Z,34.27
2019-04-26T20:06:55.261Z,33.33
2019-04-26T20:09:26.299Z,33.97
2019-04-26T20:11:57.960Z,36.37
2019-04-26T20:14:39.489Z,34.87
2019-04-26T20:16:55.617Z,35.67
2019-04-26T20:19:34.314Z,36.30
2019-04-26T20:21:56.090Z,38.13
2019-04-26T20:24:25.110Z,35.07
2019-04-26T20:26:54.169Z,33.87
2019-04-26T20:29:23.372Z,34.87
2019-04-26T20:32:12.522Z,37.63
2019-04-26T20:34:45.341Z,37.03
2019-04-26T20:37:16.164Z,38.93
2019-04-26T20:39:45.461Z,40.45
2019-04-26T20:42:14.595Z,38.70
2019-04-26T20:44:51.195Z,39.50
2019-04-26T20:47:17.700Z,39.17
2019-04-26T20:49:49.994Z,41.90
2019-04-26T20:52:21.342Z,42.47
2019-04-26T20:54:51.152Z,44.73
2019-04-26T20:57:18.857Z,41.80
2019-04-26T20:59:52.136Z,44.93
2019-04-26T21:02:20.724Z,42.60
2019-04-26T21:04:51.378Z,42.07
2019-04-26T21:07:21.881Z,42.10
2019-04-26T21:09:50.895Z,42.87
2019-04-26T21:12:20.030Z,41.87
2019-04-26T21:14:49.465Z,44.27
2019-04-26T21:17:19.488Z,43.08
2019-04-26T21:19:53.937Z,44.63
2019-04-26T21:22:25.476Z,44.07
2019-04-26T21:24:58.322Z,43.43
2019-04-26T21:27:33.395Z,42.98
2019-04-26T21:30:18.723Z,42.57
2019-04-26T21:32:59.180Z,42.17
2019-04-26T21:35:32.934Z,44.57
2019-04-26T21:38:05.628Z,44.40
2019-04-26T21:40:39.180Z,41.07
2019-04-26T21:43:08.514Z,41.20
2019-04-26T21:45:38.874Z,44.38
2019-04-26T21:48:08.603Z,42.90
2019-04-26T21:50:39.140Z,40.17
2019-04-26T21:53:08.617Z,42.17
2019-04-26T21:55:38.963Z,44.33
2019-04-26T21:58:08.624Z,40.33
2019-04-26T22:00:59.064Z,39.70
2019-04-26T22:03:28.762Z,38.63
2019-04-26T22:05:57.880Z,39.80
2019-04-26T22:08:30.497Z,37.90
2019-04-26T22:10:59.848Z,38.40
2019-04-26T22:13:41.581Z,34.50
2019-04-26T22:16:33.950Z,38.50
2019-04-26T22:19:07.689Z,39.35
2019-04-26T22:21:46.705Z,34.10
2019-04-26T22:24:36.102Z,37.57
2019-04-26T22:27:05.303Z,39.33
2019-04-26T22:29:34.331Z,37.70
2019-04-26T22:32:03.758Z,38.80
2019-04-26T22:34:32.902Z,39.70
2019-04-26T22:37:10.954Z,39.27
2019-04-26T22:39:39.747Z,38.03
2019-04-26T22:42:03.967Z,36.30
2019-04-26T22:44:38.508Z,38.50
2019-04-26T22:47:29.295Z,35.60
2019-04-26T22:49:58.358Z,35.93
2019-04-26T22:52:27.319Z,39.93
2019-04-26T22:54:56.580Z,38.33
2019-04-26T22:57:25.899Z,38.30
2019-04-26T22:59:54.959Z,40.17
2019-04-26T23:02:27.691Z,40.17
2019-04-26T23:07:23.334Z,38.37
2019-04-26T23:09:55.239Z,37.87
2019-04-26T23:12:30.585Z,36.10
2019-04-26T23:15:32.865Z,39.33
2019-04-26T23:18:24.089Z,36.27
2019-04-26T23:20:56.851Z,40.50
2019-04-26T23:23:26.045Z,42.25
2019-04-26T23:25:55.062Z,41.30
2019-04-26T23:28:27.646Z,41.75
2019-04-26T23:30:55.160Z,43.57
2019-04-26T23:33:24.431Z,41.30
2019-04-26T23:35:53.449Z,42.80
2019-04-26T23:38:23.460Z,41.90
2019-04-26T23:40:52.610Z,40.97
2019-04-26T23:43:25.414Z,42.10
2019-04-26T23:45:53.110Z,44.17
2019-04-26T23:48:22.187Z,41.67
2019-04-26T23:50:51.227Z,42.23
2019-04-26T23:53:21.404Z,43.03
2019-04-26T23:55:50.447Z,45.40
2019-04-26T23:58:19.515Z,44.13
